• Join FlightAware (Why Join?)
  • Login
  • US Flag 
01:52AM EDT


 

Airport Tracker/Info


-or-


 

Live Flight TrackerFlight Track Log ✈ N785JP ✈ 26-Aug-2013 ✈ KSFZ - 5B2

Flight Track Log - Related Links

Times and Time Zones

All times are in EDT time to prevent confusion due to time zone crossing. See the N785JP flight status page for this flight to view local times or setup timezone preferences in your user account.

Time Position Orientation Groundspeed Altitude Reporting Facility
EDT Latitude Longitude Course Direction KTS MPH feet Rate Location/Type
04:50PM 41.9108 -71.5000 299° West 143 165 800  Level Boston Center
04:51PM 41.9175 -71.5528 280° West 148 170 2,400 1,500 Climbing Boston Center
04:52PM 41.9242 -71.6058 280° West 139 160 4,000 1,500 Climbing Boston Center
04:52PM 41.9286 -71.6447 279° West 141 162 5,100 1,500 Climbing Boston Center
04:53PM 41.9375 -71.6978 283° West 143 165 6,700 1,500 Climbing Boston Center
04:54PM 41.9941 -71.9591 299° West  Level FlightAware Approximate
04:54PM 41.9522 -71.7506 291° West 161 185 8,200  Level Boston Center
04:55PM 42.0204 -72.0221 299° West  Level FlightAware Approximate
04:55PM 41.9733 -71.8033 298° West 160 184 9,600  Level Boston Center
04:57PM 41.9589 -71.8766 294° West  Level FlightAware Approximate
04:57PM 42.0011 -71.9428 294° West 224 258 10,000  Level Boston Center
04:58PM 42.0036 -72.0239 272° West 215 247 10,000  Level Boston Center
04:59PM 42.0308 -72.0794 303° West 217 250 10,000  Level Boston Center
05:00PM 42.0603 -72.1464 301° West 215 247 10,000  Level Boston Center
05:01PM 42.0939 -72.2247 300° West 215 247 10,000  Level Boston Center
05:02PM 42.1231 -72.2944 299° West 215 247 10,000  Level Boston Center
05:03PM 42.1525 -72.3700 298° West 217 250 10,000  Level Boston Center
05:04PM 42.1817 -72.4400 299° West 220 253 10,000  Level Boston Center
05:05PM 42.2128 -72.5131 300° West 221 254 10,000  Level Boston Center
05:06PM 42.2439 -72.5858 300° West 220 253 10,000  Level Boston Center
05:07PM 42.2753 -72.6561 301° West 216 249 10,000  Level Boston Center
05:09PM 42.3061 -72.7292 300° West 213 245 10,000  Level Boston Center
05:09PM 42.3250 -72.7800 297° West 213 245 10,000  Level Boston Center
05:10PM 42.3558 -72.8558 299° West 215 247 10,000  Level Boston Center
05:11PM 42.3869 -72.9264 301° West 216 249 10,000  Level Boston Center
05:12PM 42.4197 -73.0025 300° West 216 249 10,000  Level Boston Center
05:13PM 42.4486 -73.0731 299° West 219 252 10,000  Level Boston Center
05:14PM 42.4794 -73.1494 299° West 214 246 10,000 -60 Level Boston Center
05:15PM 42.5125 -73.2119 306° West 208 239 9,900 -480 Descending Boston Center
05:17PM 42.5600 -73.2717 317° Northwest 225 259 9,100 -720 Descending Boston Center
05:18PM 42.6094 -73.3286 320° Northwest 229 264 8,400 -660 Descending Boston Center
05:19PM 42.6550 -73.3831 319° Northwest 226 260 7,800 -660 Descending Boston Center
05:20PM 42.7022 -73.4431 317° Northwest 221 254 7,100 -720 Descending Boston Center
05:21PM 42.7519 -73.4947 323° Northwest 215 247 6,400 -720 Descending Boston Center
05:22PM 42.7931 -73.5519 314° West 216 249 5,700 -720 Descending Boston Center
05:23PM 42.8403 -73.6067 320° Northwest 217 250 5,000 -720 Descending Boston Center
05:24PM 42.8897 -73.6672 318° Northwest 209 241 4,200 -900 Descending Boston Center
05:25PM 42.9289 -73.7133 319° Northwest 205 236 3,300 -900 Descending Boston Center
05:26PM 42.9700 -73.7653 317° Northwest 203 234 2,500 -660 Descending Boston Center
05:27PM 43.0069 -73.8058 321° Northwest 159 183 2,000 -480 Descending Boston Center
05:28PM 43.0464 -73.8236 342° North 141 162 1,600 -420 Descending Boston Center
05:30PM 43.0500 -73.8500 320° Northwest  Level FlightAware Approximate
05:37PM 43.0507 -73.8616 320° Northwest  Level Estimated
05:38PM 43.0507 -73.8616 320° Northwest  Level Estimated
05:39PM 43.0507 -73.8616 320° Northwest  Level Estimated